Time;durP1;ratioP1;P1;durP2;ratioP2;P2;SDS_P1;SDS_P2;PMS_P1;PMS_P2;Temp;Humidity;BMP_temperature;BMP_pressure;BME280_temperature;BME280_humidity;BME280_pressure;Samples;Min_cycle;Max_cycle;Signal;HPM_P1;HPM_P2
2023/08/05 00:02:05;;;;;;;3.67;1.33;;;;;;;13.09;51.81;101575.47;4991141;28;20519;-66
2023/08/05 00:04:31;;;;;;;7.45;1.33;;;;;;;13.20;51.58;101576.81;4988264;28;20040;-68
2023/08/05 00:06:57;;;;;;;1.98;1.00;;;;;;;13.32;51.13;101571.09;4990488;28;20075;-66
2023/08/05 00:09:22;;;;;;;2.15;0.80;;;;;;;13.27;50.75;101571.28;5004182;28;20270;-68
2023/08/05 00:11:48;;;;;;;2.63;0.98;;;;;;;13.29;51.03;101576.44;4989088;28;20034;-66
2023/08/05 00:14:13;;;;;;;2.85;0.95;;;;;;;13.20;50.76;101577.66;4990132;28;20300;-66
2023/08/05 00:16:38;;;;;;;4.88;1.60;;;;;;;13.25;50.79;101575.72;4986744;28;20427;-64
2023/08/05 00:19:04;;;;;;;6.15;1.70;;;;;;;13.23;50.94;101579.34;4987293;28;20163;-65
2023/08/05 00:21:29;;;;;;;7.50;1.27;;;;;;;13.16;51.18;101580.47;4990522;28;20394;-65
2023/08/05 00:23:55;;;;;;;5.93;1.30;;;;;;;13.06;51.42;101575.59;4989141;28;20045;-65
2023/08/05 00:26:20;;;;;;;3.65;1.27;;;;;;;13.25;51.25;101574.84;4990643;28;20144;-65
2023/08/05 00:28:46;;;;;;;7.10;1.38;;;;;;;13.09;50.80;101569.34;4987010;28;20041;-66
2023/08/05 00:31:12;;;;;;;1.58;1.05;;;;;;;13.23;51.14;101576.72;4991839;28;20034;-65
2023/08/05 00:33:37;;;;;;;3.20;1.25;;;;;;;13.19;51.31;101572.50;4997930;28;20416;-65
2023/08/05 00:36:02;;;;;;;9.18;1.27;;;;;;;13.07;51.10;101574.69;4993945;28;20034;-65
2023/08/05 00:38:28;;;;;;;2.65;1.20;;;;;;;13.07;51.26;101568.56;5006101;28;20699;-64
2023/08/05 00:40:53;;;;;;;1.67;0.93;;;;;;;13.26;51.16;101571.31;4988040;28;20879;-67
2023/08/05 00:43:19;;;;;;;3.65;0.82;;;;;;;13.19;51.66;101567.25;4988424;28;20411;-67
2023/08/05 00:45:45;;;;;;;2.75;1.10;;;;;;;13.36;50.97;101562.16;4986621;28;20700;-67
2023/08/05 00:48:11;;;;;;;8.43;1.55;;;;;;;13.32;51.13;101563.22;4991607;28;20420;-67
2023/08/05 00:50:39;;;;;;;3.42;1.48;;;;;;;13.41;51.08;101562.81;4967953;28;20030;-67
2023/08/05 00:53:04;;;;;;;4.15;0.98;;;;;;;13.38;50.99;101557.69;4994215;28;20104;-66
2023/08/05 00:55:30;;;;;;;3.05;0.80;;;;;;;13.45;51.20;101556.53;4990077;28;20038;-67
2023/08/05 00:57:56;;;;;;;4.18;1.45;;;;;;;13.52;51.02;101555.34;4982780;28;20073;-66
2023/08/05 01:00:22;;;;;;;3.78;0.85;;;;;;;13.53;50.83;101553.56;4990481;28;20030;-65
2023/08/05 01:02:47;;;;;;;2.38;0.80;;;;;;;13.42;50.72;101554.00;4988180;28;20460;-66
2023/08/05 01:05:13;;;;;;;3.95;1.30;;;;;;;13.55;50.62;101550.91;4990329;28;20154;-65
2023/08/05 01:07:39;;;;;;;2.78;0.70;;;;;;;13.59;50.44;101552.50;4990253;28;20042;-65
2023/08/05 01:10:05;;;;;;;6.30;1.10;;;;;;;13.61;50.56;101545.44;4972330;28;20037;-66
2023/08/05 01:12:31;;;;;;;2.30;0.90;;;;;;;13.58;50.75;101545.53;4986120;28;20049;-66
2023/08/05 01:14:56;;;;;;;5.60;1.08;;;;;;;13.56;50.53;101558.69;4989868;28;21341;-66
2023/08/05 01:17:22;;;;;;;5.65;0.80;;;;;;;13.60;50.65;101551.59;4989572;28;20528;-66
2023/08/05 01:19:47;;;;;;;7.10;1.30;;;;;;;13.49;50.62;101552.84;5001589;28;20339;-66
2023/08/05 01:22:26;;;;;;;4.57;1.33;;;;;;;13.32;51.47;101550.09;4990488;28;20033;-66
2023/08/05 01:25:03;;;;;;;2.35;1.20;;;;;;;13.37;50.97;101553.38;4986549;28;20052;-66
2023/08/05 01:27:30;;;;;;;7.32;1.45;;;;;;;13.35;51.84;101547.31;4990680;28;20061;-66
2023/08/05 01:29:55;;;;;;;5.88;1.58;;;;;;;13.34;51.66;101548.25;4997696;28;20061;-67
2023/08/05 01:32:22;;;;;;;2.70;1.50;;;;;;;13.37;51.51;101553.38;4990283;28;20030;-67
2023/08/05 01:34:48;;;;;;;2.67;1.63;;;;;;;13.30;51.55;101551.91;4989814;28;20038;-66
2023/08/05 01:37:14;;;;;;;4.45;1.63;;;;;;;13.28;51.87;101553.75;5004145;28;20399;-66
2023/08/05 01:39:40;;;;;;;2.58;1.30;;;;;;;13.32;51.77;101550.09;4967041;28;20493;-66
2023/08/05 01:42:06;;;;;;;2.20;1.15;;;;;;;13.34;51.48;101550.88;5005509;28;20070;-67
2023/08/05 01:44:31;;;;;;;2.85;1.25;;;;;;;13.42;51.48;101556.63;4988322;28;20418;-67
2023/08/05 01:46:57;;;;;;;4.60;1.63;;;;;;;13.38;51.63;101554.22;4969575;28;20522;-66
2023/08/05 01:49:23;;;;;;;4.15;1.00;;;;;;;13.42;51.70;101540.88;4986535;28;20042;-67
2023/08/05 01:51:48;;;;;;;5.25;1.25;;;;;;;13.29;51.79;101547.56;4986645;28;20061;-67
2023/08/05 01:54:16;;;;;;;8.68;1.15;;;;;;;13.20;51.65;101551.41;4990617;28;20424;-66
2023/08/05 01:56:42;;;;;;;1.80;0.68;;;;;;;13.20;52.08;101556.66;4984811;28;20558;-67
2023/08/05 01:59:08;;;;;;;2.28;0.85;;;;;;;13.31;52.20;101548.34;4986085;28;20302;-67
2023/08/05 02:01:40;;;;;;;2.63;1.35;;;;;;;13.35;52.06;101549.09;4989607;28;20026;-68
2023/08/05 02:04:06;;;;;;;3.92;1.02;;;;;;;13.42;51.95;101551.38;5006894;28;20059;-67
2023/08/05 02:06:31;;;;;;;5.25;1.35;;;;;;;13.48;51.72;101550.31;4994316;28;20060;-66
2023/08/05 02:08:59;;;;;;;6.60;1.35;;;;;;;13.49;51.76;101563.34;4970918;28;20173;-67
2023/08/05 02:11:25;;;;;;;6.15;2.08;;;;;;;13.43;51.89;101563.63;4990812;28;20029;-66
2023/08/05 02:13:50;;;;;;;2.30;1.67;;;;;;;13.45;51.91;101563.53;4992702;28;20479;-67
2023/08/05 02:16:15;;;;;;;2.22;1.48;;;;;;;13.47;51.97;101562.59;5009429;28;20218;-67
2023/08/05 02:18:41;;;;;;;5.10;1.63;;;;;;;13.38;52.07;101557.69;4977292;28;20052;-66
2023/08/05 02:21:06;;;;;;;6.70;1.55;;;;;;;13.50;51.88;101559.81;4993168;28;20053;-66
2023/08/05 02:23:32;;;;;;;3.33;1.30;;;;;;;13.47;51.75;101559.94;4995157;28;20060;-66
2023/08/05 02:26:01;;;;;;;3.35;1.10;;;;;;;13.52;51.95;101557.13;4977816;28;20518;-65
2023/08/05 02:28:26;;;;;;;3.45;1.13;;;;;;;13.58;51.62;101553.41;4974967;28;20034;-66
2023/08/05 02:30:51;;;;;;;1.85;0.80;;;;;;;13.63;51.68;101556.69;4991033;28;20033;-66
2023/08/05 02:33:17;;;;;;;3.97;1.50;;;;;;;13.59;51.12;101552.50;4991164;28;20068;-68
2023/08/05 02:35:42;;;;;;;7.32;1.40;;;;;;;13.60;51.59;101549.81;4995015;28;20069;-68
2023/08/05 02:38:08;;;;;;;4.03;1.38;;;;;;;13.49;51.88;101559.88;4990200;28;20132;-67
2023/08/05 02:40:35;;;;;;;5.80;1.40;;;;;;;13.45;51.95;101556.53;4985670;28;20504;-69
2023/08/05 02:43:01;;;;;;;2.83;1.13;;;;;;;13.42;52.17;101551.38;4991145;28;20766;-68
2023/08/05 02:45:26;;;;;;;3.67;1.35;;;;;;;13.42;52.28;101548.75;4991251;28;20088;-67
2023/08/05 02:47:52;;;;;;;3.67;1.00;;;;;;;13.37;52.11;101552.50;4972889;28;21434;-66
2023/08/05 02:50:17;;;;;;;6.07;1.10;;;;;;;13.28;52.27;101544.09;4993406;28;20495;-67
2023/08/05 02:52:43;;;;;;;7.32;1.10;;;;;;;13.30;52.59;101550.13;4974470;28;20037;-66
2023/08/05 02:55:08;;;;;;;4.80;1.05;;;;;;;13.28;52.45;101540.63;4989893;28;20030;-67
2023/08/05 02:57:34;;;;;;;1.60;0.90;;;;;;;13.22;52.63;101539.06;4990411;28;21979;-66
2023/08/05 02:59:59;;;;;;;6.50;1.27;;;;;;;13.26;52.33;101534.56;4990773;28;20026;-67
2023/08/05 03:02:25;;;;;;;5.88;1.10;;;;;;;13.28;52.68;101532.75;4993560;28;20034;-67
2023/08/05 03:04:51;;;;;;;1.67;0.73;;;;;;;13.31;52.56;101529.97;4990537;28;20087;-66
2023/08/05 03:07:16;;;;;;;6.53;1.92;;;;;;;13.18;52.70;101527.00;4991024;28;20133;-66
2023/08/05 03:09:41;;;;;;;2.13;1.33;;;;;;;13.24;52.82;101539.03;4980856;28;20534;-64
2023/08/05 03:12:08;;;;;;;2.65;1.00;;;;;;;13.30;52.61;101542.25;5004789;28;20404;-65
2023/08/05 03:14:34;;;;;;;4.00;1.40;;;;;;;13.26;52.34;101539.81;5004346;28;20591;-66
2023/08/05 03:17:02;;;;;;;12.07;2.80;;;;;;;13.16;52.86;101541.09;4990736;28;20128;-68
2023/08/05 03:19:28;;;;;;;7.72;1.65;;;;;;;13.23;52.56;101538.19;5006801;28;20084;-65
2023/08/05 03:21:53;;;;;;;6.20;1.42;;;;;;;13.23;52.43;101543.44;4989631;28;20274;-69
2023/08/05 03:24:19;;;;;;;3.97;1.90;;;;;;;13.15;52.52;101536.78;4973217;28;20371;-70
2023/08/05 03:26:50;;;;;;;3.63;2.13;;;;;;;13.18;52.86;101547.16;4993801;28;20310;-70
2023/08/05 03:29:18;;;;;;;8.45;1.83;;;;;;;12.89;53.47;101543.91;4988204;28;20065;-67
2023/08/05 03:31:43;;;;;;;8.27;2.60;;;;;;;13.01;53.60;101545.22;4992671;28;20033;-69
2023/08/05 03:34:09;;;;;;;6.72;1.60;;;;;;;13.12;53.11;101548.25;4992283;28;20069;-65
2023/08/05 03:36:36;;;;;;;8.13;1.88;;;;;;;13.27;52.90;101552.00;4972997;28;20087;-66
2023/08/05 03:39:03;;;;;;;4.25;1.77;;;;;;;13.36;52.64;101542.91;4972385;28;20140;-66
2023/08/05 03:41:28;;;;;;;4.90;1.63;;;;;;;13.46;52.60;101546.88;5005438;28;20034;-65
2023/08/05 03:43:54;;;;;;;7.03;2.55;;;;;;;13.42;52.22;101540.03;4984644;28;20037;-65
2023/08/05 03:46:20;;;;;;;5.93;2.33;;;;;;;13.32;52.22;101544.81;5007831;28;20049;-65
2023/08/05 03:48:45;;;;;;;5.40;2.50;;;;;;;13.24;52.61;101534.63;4990730;28;20157;-66
2023/08/05 03:51:11;;;;;;;3.70;2.22;;;;;;;13.16;53.01;101533.22;4990223;28;20551;-66
2023/08/05 03:53:36;;;;;;;4.72;1.38;;;;;;;13.24;52.96;101533.78;4986400;28;20271;-67
2023/08/05 03:56:02;;;;;;;6.40;2.22;;;;;;;13.33;52.87;101520.28;4988998;28;20470;-67
2023/08/05 03:58:28;;;;;;;3.55;2.25;;;;;;;13.39;52.87;101529.69;4983838;28;20038;-66
2023/08/05 04:00:56;;;;;;;2.92;2.53;;;;;;;13.39;52.60;101520.03;4989477;28;20045;-66
2023/08/05 04:03:22;;;;;;;4.57;2.10;;;;;;;13.37;52.55;101516.59;4971075;28;20061;-67
2023/08/05 04:05:48;;;;;;;5.43;2.20;;;;;;;13.35;52.92;101513.19;4989837;28;20056;-69
2023/08/05 04:08:13;;;;;;;3.67;1.65;;;;;;;13.43;53.24;101518.09;4988990;28;20496;-68
2023/08/05 04:10:40;;;;;;;5.32;2.17;;;;;;;13.50;52.97;101511.69;4986067;28;20042;-68
2023/08/05 04:13:11;;;;;;;5.63;2.08;;;;;;;13.52;53.09;101510.72;4988440;28;20072;-67
2023/08/05 04:15:38;;;;;;;3.95;1.73;;;;;;;13.49;53.25;101515.22;4988005;28;20322;-67
2023/08/05 04:18:04;;;;;;;6.68;2.30;;;;;;;13.54;53.06;101505.41;4989433;28;20248;-66
2023/08/05 04:20:35;;;;;;;5.32;2.13;;;;;;;13.62;53.34;101505.09;4989298;28;20061;-66
2023/08/05 04:23:01;;;;;;;5.78;1.70;;;;;;;13.65;52.94;101499.69;4974989;28;20034;-67
2023/08/05 04:25:29;;;;;;;8.80;3.17;;;;;;;13.57;52.97;101499.19;4989194;28;20026;-67
2023/08/05 04:27:54;;;;;;;5.55;2.15;;;;;;;13.63;52.93;101496.28;4985482;28;20042;-68
2023/08/05 04:30:20;;;;;;;3.35;1.80;;;;;;;13.72;53.07;101488.88;4984803;28;20041;-68
2023/08/05 04:32:46;;;;;;;3.40;1.67;;;;;;;13.63;53.06;101485.78;4986734;28;20138;-68
2023/08/05 04:35:11;;;;;;;5.75;2.58;;;;;;;13.64;53.07;101492.75;4992243;28;20034;-67
2023/08/05 04:37:37;;;;;;;9.00;1.48;;;;;;;13.58;53.10;101485.13;4999005;28;20042;-67
2023/08/05 04:40:03;;;;;;;3.47;1.38;;;;;;;13.70;53.05;101487.25;4986711;28;20053;-67
2023/08/05 04:42:28;;;;;;;2.33;1.77;;;;;;;13.77;52.99;101477.31;5005029;28;20087;-66
2023/08/05 04:44:55;;;;;;;3.42;1.75;;;;;;;13.79;53.00;101476.31;4991947;28;20030;-67
2023/08/05 04:47:21;;;;;;;5.35;1.92;;;;;;;13.86;53.04;101480.38;5000652;28;20096;-67
2023/08/05 04:49:46;;;;;;;6.15;2.63;;;;;;;13.73;53.27;101479.22;4992593;28;20540;-66
2023/08/05 04:52:13;;;;;;;6.70;1.48;;;;;;;13.85;53.09;101476.06;4990315;28;20331;-67
2023/08/05 04:54:41;;;;;;;7.07;2.08;;;;;;;13.82;53.03;101477.97;4985201;28;20041;-67
2023/08/05 04:57:06;;;;;;;6.38;2.55;;;;;;;13.88;52.87;101472.44;4984725;28;20088;-67
2023/08/05 04:59:33;;;;;;;4.05;1.70;;;;;;;13.89;52.46;101471.50;4985649;28;20504;-68
2023/08/05 05:01:58;;;;;;;4.72;1.88;;;;;;;13.90;52.36;101465.34;4992777;28;20354;-68
2023/08/05 05:04:24;;;;;;;4.80;1.80;;;;;;;13.75;53.89;101469.50;4985298;28;20576;-68
2023/08/05 05:06:50;;;;;;;7.57;2.28;;;;;;;13.85;53.21;101457.66;4989811;28;20080;-67
2023/08/05 05:09:16;;;;;;;2.58;1.77;;;;;;;13.93;53.06;101458.16;4987075;28;20068;-66
2023/08/05 05:11:41;;;;;;;9.30;2.10;;;;;;;13.97;52.73;101468.56;4990804;28;20038;-65
2023/08/05 05:14:09;;;;;;;4.78;1.60;;;;;;;13.87;52.87;101461.06;4988633;28;20469;-64
2023/08/05 05:16:38;;;;;;;7.50;2.10;;;;;;;14.00;52.92;101458.72;4989867;28;20042;-66
2023/08/05 05:19:03;;;;;;;6.50;2.80;;;;;;;14.03;52.22;101458.63;4987495;28;20037;-66
2023/08/05 05:21:30;;;;;;;5.43;2.40;;;;;;;14.05;52.40;101455.91;4988064;28;20251;-66
2023/08/05 05:23:57;;;;;;;2.30;1.70;;;;;;;14.25;51.99;101455.81;4988048;28;20038;-65
2023/08/05 05:26:23;;;;;;;4.50;1.77;;;;;;;14.32;51.81;101452.00;4988575;28;20237;-66
2023/08/05 05:28:48;;;;;;;8.80;2.17;;;;;;;14.11;51.85;101450.38;4986916;28;20038;-69
2023/08/05 05:31:16;;;;;;;4.88;2.33;;;;;;;14.07;52.03;101451.44;5007712;28;20034;-67
2023/08/05 05:33:47;;;;;;;5.28;2.70;;;;;;;14.16;52.29;101443.13;4985604;28;20864;-66
2023/08/05 05:36:13;;;;;;;3.15;1.73;;;;;;;16.74;47.79;101442.25;4990544;28;20389;-66
2023/08/05 05:38:38;;;;;;;4.45;1.77;;;;;;;18.79;42.47;101447.34;4986803;28;20045;-66
2023/08/05 05:41:04;;;;;;;6.65;1.77;;;;;;;20.69;37.17;101432.41;4989868;28;20048;-67
2023/08/05 05:43:29;;;;;;;7.45;1.70;;;;;;;21.29;37.22;101436.72;4983679;28;20357;-67
2023/08/05 05:45:55;;;;;;;5.03;1.80;;;;;;;21.87;35.74;101441.09;4990093;28;20068;-67
2023/08/05 05:48:20;;;;;;;4.30;1.10;;;;;;;21.86;34.16;101440.28;4983990;28;20150;-67
2023/08/05 05:50:46;;;;;;;2.17;1.13;;;;;;;23.53;32.55;101435.44;4992864;28;20665;-66
2023/08/05 05:53:16;;;;;;;6.68;1.40;;;;;;;24.52;30.37;101436.47;4986976;28;20038;-68
2023/08/05 05:55:44;;;;;;;4.65;1.00;;;;;;;25.42;28.70;101432.59;5004605;28;20030;-68
2023/08/05 05:58:10;;;;;;;2.08;0.73;;;;;;;26.10;28.02;101434.16;4983457;28;20041;-68
2023/08/05 06:00:39;;;;;;;5.57;0.90;;;;;;;25.20;28.68;101430.25;4987705;28;20030;-67
2023/08/05 06:03:05;;;;;;;3.42;0.68;;;;;;;25.96;29.11;101438.16;4989708;28;20041;-68
2023/08/05 06:05:31;;;;;;;2.85;1.08;;;;;;;26.23;27.15;101434.63;4985187;28;20037;-67
2023/08/05 06:07:56;;;;;;;5.38;0.90;;;;;;;26.74;27.73;101431.44;4985912;28;20100;-68
2023/08/05 06:10:22;;;;;;;3.53;1.10;;;;;;;27.48;26.04;101424.75;4985831;28;20256;-72
2023/08/05 06:12:50;;;;;;;5.10;1.00;;;;;;;27.40;26.25;101427.41;4990316;28;20412;-70
2023/08/05 06:15:18;;;;;;;3.63;1.38;;;;;;;27.49;26.39;101432.63;4985688;28;20030;-69
2023/08/05 06:17:46;;;;;;;4.18;0.80;;;;;;;27.01;25.90;101434.00;4988382;28;20554;-69
2023/08/05 06:20:11;;;;;;;4.07;0.65;;;;;;;27.24;25.68;101428.16;4991017;28;20497;-70
2023/08/05 06:22:37;;;;;;;2.08;1.00;;;;;;;28.25;24.44;101422.88;4998780;28;20029;-70
2023/08/05 06:25:03;;;;;;;2.03;0.50;;;;;;;28.39;24.60;101433.97;4987039;28;20044;-69
2023/08/05 06:27:29;;;;;;;2.45;0.60;;;;;;;28.23;24.06;101430.25;5001937;28;20352;-68
2023/08/05 06:29:54;;;;;;;3.58;0.60;;;;;;;28.24;24.64;101431.97;4986904;28;20037;-68
2023/08/05 06:32:20;;;;;;;4.53;1.02;;;;;;;28.25;23.98;101422.88;4988929;28;20033;-68
2023/08/05 06:34:45;;;;;;;3.90;0.80;;;;;;;27.52;25.42;101435.03;5004047;28;20042;-68
2023/08/05 06:37:14;;;;;;;3.38;0.60;;;;;;;26.61;27.17;101432.69;4985404;28;20039;-70
2023/08/05 06:39:40;;;;;;;7.65;0.93;;;;;;;26.03;27.33;101443.75;4986334;28;20263;-69
2023/08/05 06:42:05;;;;;;;4.93;0.88;;;;;;;26.57;27.38;101439.31;4993348;28;20040;-69
2023/08/05 06:44:37;;;;;;;2.60;0.63;;;;;;;26.85;26.71;101437.41;4982585;28;21286;-68
2023/08/05 06:47:04;;;;;;;2.17;0.70;;;;;;;27.76;25.05;101429.94;4986225;28;20133;-69
2023/08/05 06:49:29;;;;;;;4.80;0.57;;;;;;;24.85;28.30;101434.34;4984947;28;20044;-69
2023/08/05 06:51:57;;;;;;;3.97;1.00;;;;;;;24.49;29.35;101436.75;5003121;28;20029;-70
2023/08/05 06:54:25;;;;;;;1.85;0.70;;;;;;;25.13;28.95;101432.66;4990025;28;20062;-69
2023/08/05 06:56:51;;;;;;;2.03;0.60;;;;;;;26.14;26.98;101429.34;4992693;28;20480;-69
2023/08/05 06:59:17;;;;;;;3.03;0.50;;;;;;;27.63;24.49;101427.69;4987272;28;20045;-70
2023/08/05 07:01:42;;;;;;;2.70;0.57;;;;;;;27.79;24.06;101430.47;4991882;28;20042;-71
2023/08/05 07:04:08;;;;;;;4.78;0.88;;;;;;;27.26;25.07;101436.88;4991802;28;20118;-68
2023/08/05 07:06:33;;;;;;;4.35;0.40;;;;;;;28.87;24.27;101429.66;4992056;28;20229;-69
2023/08/05 07:08:59;;;;;;;2.38;0.30;;;;;;;29.23;22.58;101432.81;4990601;28;20038;-69
2023/08/05 07:11:27;;;;;;;1.60;0.40;;;;;;;27.68;23.54;101431.59;5006142;28;20100;-69
2023/08/05 07:13:53;;;;;;;1.42;0.35;;;;;;;25.67;25.63;101432.94;5009451;28;20045;-69
2023/08/05 07:16:18;;;;;;;2.15;0.40;;;;;;;25.23;25.86;101440.66;4987549;28;20678;-69
2023/08/05 07:18:44;;;;;;;2.72;0.22;;;;;;;25.63;26.66;101440.41;5003826;28;20085;-69
2023/08/05 07:21:09;;;;;;;3.13;0.40;;;;;;;24.57;27.68;101439.59;4993745;28;20565;-69
2023/08/05 07:23:35;;;;;;;1.30;0.20;;;;;;;24.35;28.45;101435.31;4986394;28;21434;-69
2023/08/05 07:26:01;;;;;;;1.65;0.60;;;;;;;22.76;30.06;101433.94;4992885;28;20638;-69
2023/08/05 07:28:27;;;;;;;3.33;0.40;;;;;;;22.03;32.58;101436.28;4988031;28;20045;-68
2023/08/05 07:31:08;;;;;;;2.97;0.45;;;;;;;21.57;33.13;101439.91;4985228;28;20041;-66
2023/08/05 07:33:34;;;;;;;5.15;0.55;;;;;;;21.76;32.10;101440.16;4988127;28;21452;-75
2023/08/05 07:36:13;;;;;;;1.83;0.22;;;;;;;22.13;31.51;101436.41;4994834;28;20034;-73
2023/08/05 07:38:43;;;;;;;3.65;0.55;;;;;;;22.07;31.77;101429.75;4986871;28;20400;-71
2023/08/05 07:41:09;;;;;;;4.38;0.30;;;;;;;21.50;32.56;101430.72;4991527;28;20088;-71
2023/08/05 07:43:38;;;;;;;2.50;0.50;;;;;;;22.92;31.38;101421.03;5000946;28;20099;-71
2023/08/05 07:46:05;;;;;;;1.83;0.60;;;;;;;25.18;27.41;101422.38;4994894;28;20052;-71
2023/08/05 07:48:37;;;;;;;1.25;0.63;;;;;;;27.26;25.27;101412.72;5001390;28;20041;-72
2023/08/05 07:51:06;;;;;;;2.15;0.30;;;;;;;28.81;22.89;101406.13;4993814;28;20492;-70
2023/08/05 07:53:38;;;;;;;6.07;0.80;;;;;;;28.74;22.40;101405.97;4990388;28;20045;-70
2023/08/05 07:56:16;;;;;;;0.82;0.25;;;;;;;29.06;21.91;101398.84;4992233;28;20150;-73
2023/08/05 07:58:47;;;;;;;3.70;0.77;;;;;;;30.07;21.24;101398.16;4987226;28;20054;-70
2023/08/05 08:01:19;;;;;;;1.77;0.40;;;;;;;29.18;20.70;101389.44;4990902;28;20116;-70
2023/08/05 08:03:47;;;;;;;1.25;0.30;;;;;;;30.43;20.08;101392.19;4986524;28;20041;-71
2023/08/05 08:06:15;;;;;;;1.75;0.30;;;;;;;29.50;20.96;101393.84;4988848;28;20069;-69
2023/08/05 08:08:43;;;;;;;2.50;0.60;;;;;;;28.78;21.74;101395.72;4988492;28;20037;-70
2023/08/05 08:11:10;;;;;;;2.47;0.52;;;;;;;28.17;22.14;101387.94;4987653;28;20621;-68
2023/08/05 08:13:41;;;;;;;1.98;0.30;;;;;;;26.92;22.82;101378.63;4984590;28;20041;-68
2023/08/05 08:16:09;;;;;;;0.57;0.20;;;;;;;25.06;24.50;101380.72;4989189;28;20116;-70
2023/08/05 08:18:37;;;;;;;1.95;0.30;;;;;;;24.76;25.30;101384.44;4966374;28;21083;-71
2023/08/05 08:21:04;;;;;;;1.88;0.35;;;;;;;26.20;23.88;101373.31;4994111;28;20037;-71
2023/08/05 08:23:30;;;;;;;2.08;0.68;;;;;;;26.52;24.47;101377.28;4982628;28;20041;-70
2023/08/05 08:25:59;;;;;;;1.67;0.57;;;;;;;25.82;25.21;101374.38;4990849;28;20473;-70
2023/08/05 08:28:27;;;;;;;1.55;0.47;;;;;;;26.31;24.30;101376.75;4978581;28;20427;-71
2023/08/05 08:30:54;;;;;;;2.42;0.50;;;;;;;25.08;25.78;101381.44;4991279;28;20073;-72
2023/08/05 08:33:21;;;;;;;1.10;0.30;;;;;;;24.28;26.93;101377.22;4970939;28;20068;-72
2023/08/05 08:35:47;;;;;;;0.70;0.30;;;;;;;23.15;28.56;101380.91;4967109;28;20459;-70
2023/08/05 08:38:13;;;;;;;3.65;0.32;;;;;;;20.76;32.04;101383.16;4986306;28;20073;-70
2023/08/05 08:40:48;;;;;;;1.38;0.40;;;;;;;19.31;34.46;101371.47;4984757;28;20033;-69
2023/08/05 08:43:17;;;;;;;2.70;0.50;;;;;;;18.84;35.84;101368.44;4985442;28;20381;-69
2023/08/05 08:45:44;;;;;;;1.30;0.40;;;;;;;19.08;36.07;101367.75;4985058;28;20030;-70
2023/08/05 08:48:10;;;;;;;3.30;0.47;;;;;;;20.59;33.41;101362.31;4962873;28;20084;-69
2023/08/05 08:50:40;;;;;;;2.10;0.40;;;;;;;21.63;31.73;101361.47;4983053;28;20038;-69
2023/08/05 08:53:08;;;;;;;2.25;0.30;;;;;;;22.13;31.72;101360.03;4984063;28;20124;-71
2023/08/05 08:55:35;;;;;;;8.00;0.90;;;;;;;22.00;31.90;101355.81;4984840;28;20392;-74
2023/08/05 08:58:01;;;;;;;4.45;0.82;;;;;;;22.27;30.82;101363.38;5005347;28;20527;-74
2023/08/05 09:00:27;;;;;;;1.85;0.68;;;;;;;22.93;31.86;101356.06;4981106;28;20030;-72
2023/08/05 09:02:53;;;;;;;1.00;0.32;;;;;;;24.21;27.62;101351.09;5003634;28;21222;-72
2023/08/05 09:05:21;;;;;;;2.95;0.50;;;;;;;24.72;27.53;101340.25;4989970;28;20029;-70
2023/08/05 09:07:48;;;;;;;3.03;0.63;;;;;;;26.38;26.04;101340.31;4985388;28;20034;-69
2023/08/05 09:10:19;;;;;;;0.88;0.30;;;;;;;26.39;24.72;101336.63;4990860;28;20049;-69
2023/08/05 09:12:45;;;;;;;0.88;0.20;;;;;;;27.55;24.01;101334.53;4989635;28;20034;-68
2023/08/05 09:15:15;;;;;;;0.45;0.20;;;;;;;27.29;22.00;101342.63;4985741;28;20458;-67
2023/08/05 09:17:40;;;;;;;2.05;0.20;;;;;;;26.11;23.32;101338.56;4995545;28;20281;-67
2023/08/05 09:20:22;;;;;;;2.97;0.40;;;;;;;24.46;25.94;101343.53;4986661;28;20138;-69
2023/08/05 09:22:59;;;;;;;1.95;0.40;;;;;;;23.48;26.32;101333.66;4981910;28;21991;-74
2023/08/05 09:25:25;;;;;;;1.95;0.43;;;;;;;23.09;28.57;101339.59;4986331;28;21549;-71
2023/08/05 09:27:52;;;;;;;1.15;0.25;;;;;;;22.99;28.44;101338.72;4997227;28;20164;-69
2023/08/05 09:30:21;;;;;;;1.13;0.32;;;;;;;22.72;28.45;101331.28;4985958;28;20033;-70
2023/08/05 09:32:47;;;;;;;1.80;0.38;;;;;;;22.80;28.88;101331.44;4983953;28;20052;-70
2023/08/05 09:35:16;;;;;;;2.55;0.30;;;;;;;22.40;29.36;101337.44;4987135;28;20453;-71
2023/08/05 09:37:48;;;;;;;1.35;0.70;;;;;;;22.17;30.31;101337.53;4985685;28;20111;-71
2023/08/05 09:40:18;;;;;;;2.70;0.60;;;;;;;21.74;30.68;101329.53;4985658;28;20499;-72
2023/08/05 09:43:00;;;;;;;2.67;0.25;;;;;;;21.23;30.98;101333.50;4983647;28;20125;-71
2023/08/05 09:45:28;;;;;;;1.45;0.40;;;;;;;21.21;31.69;101329.28;4987775;28;20121;-73
2023/08/05 09:48:09;;;;;;;1.60;0.25;;;;;;;21.94;30.65;101319.94;5001270;28;20053;-75
2023/08/05 09:50:37;;;;;;;1.57;0.30;;;;;;;23.26;29.69;101314.16;4983416;28;20953;-74
2023/08/05 09:53:07;;;;;;;3.40;0.35;;;;;;;23.87;27.76;101313.25;4986266;28;20244;-74
2023/08/05 09:55:34;;;;;;;0.50;0.20;;;;;;;24.10;27.95;101300.50;4985791;28;20033;-73
2023/08/05 09:58:01;;;;;;;1.50;0.40;;;;;;;23.43;28.17;101310.03;4987006;28;20285;-74
2023/08/05 10:00:28;;;;;;;1.90;0.40;;;;;;;22.68;29.45;101309.38;4979696;28;20029;-69
2023/08/05 10:02:54;;;;;;;0.70;0.22;;;;;;;22.74;30.70;101308.84;4987021;28;20045;-74
2023/08/05 10:05:24;;;;;;;2.53;0.20;;;;;;;22.64;29.18;101296.41;4988015;28;20034;-74
2023/08/05 10:07:53;;;;;;;5.20;0.30;;;;;;;22.18;29.40;101301.97;4983103;28;20050;-74
2023/08/05 10:10:20;;;;;;;1.33;0.40;;;;;;;22.51;29.51;101296.59;4987246;28;20068;-70
2023/08/05 10:12:51;;;;;;;2.45;0.93;;;;;;;23.44;29.36;101284.22;4997177;28;20056;-68
2023/08/05 10:15:27;;;;;;;0.90;0.30;;;;;;;23.17;28.44;101278.47;4987535;28;20060;-71
2023/08/05 10:17:53;;;;;;;3.50;0.45;;;;;;;23.14;27.97;101278.75;4985733;28;21225;-72
2023/08/05 10:20:20;;;;;;;1.65;0.47;;;;;;;23.06;28.66;101262.56;4983985;28;20049;-70
2023/08/05 10:23:06;;;;;;;0.88;0.30;;;;;;;22.84;28.81;101255.59;4984212;28;20648;-69
2023/08/05 10:25:42;;;;;;;3.67;0.30;;;;;;;22.36;28.40;101253.44;4988928;28;20072;-71
2023/08/05 10:28:09;;;;;;;2.20;0.80;;;;;;;22.31;29.13;101248.50;4988332;28;20544;-70
2023/08/05 10:30:42;;;;;;;2.42;0.30;;;;;;;22.86;30.14;101253.66;4984890;28;20134;-71
2023/08/05 10:33:08;;;;;;;2.20;0.40;;;;;;;22.62;28.37;101240.59;4988868;28;20134;-70
2023/08/05 10:35:42;;;;;;;3.95;0.90;;;;;;;22.46;28.16;101230.41;4988162;28;21236;-70
2023/08/05 10:38:15;;;;;;;1.42;0.40;;;;;;;21.97;29.97;101224.69;4989411;28;20067;-70
2023/08/05 10:41:00;;;;;;;2.28;0.38;;;;;;;22.02;29.71;101229.63;4992098;28;20300;-71
2023/08/05 10:43:41;;;;;;;1.40;0.40;;;;;;;21.98;30.90;101230.88;5002200;28;20049;-69
2023/08/05 10:46:06;;;;;;;1.10;0.22;;;;;;;22.43;29.54;101221.81;4991753;28;20108;-68
2023/08/05 10:48:47;;;;;;;2.42;0.80;;;;;;;22.24;28.96;101223.38;4988717;28;20093;-69
2023/08/05 10:51:14;;;;;;;2.65;0.38;;;;;;;21.92;29.38;101224.25;4988485;28;20045;-70
2023/08/05 10:54:04;;;;;;;2.20;0.30;;;;;;;22.15;28.93;101222.34;4963791;28;20041;-68
2023/08/05 10:56:31;;;;;;;4.88;0.32;;;;;;;21.69;29.89;101212.00;4986646;28;20053;-68
2023/08/05 10:58:59;;;;;;;2.22;0.40;;;;;;;23.26;28.52;101207.50;4983211;28;20211;-67
2023/08/05 11:01:51;;;;;;;1.75;0.45;;;;;;;23.54;27.99;101205.91;4989227;28;20040;-70
2023/08/05 11:04:30;;;;;;;1.42;0.38;;;;;;;22.44;28.30;101199.56;4988114;28;20041;-68
2023/08/05 11:07:03;;;;;;;1.17;0.40;;;;;;;22.54;28.92;101195.97;4985581;28;20033;-72
2023/08/05 11:09:35;;;;;;;2.08;0.63;;;;;;;23.16;28.69;101193.28;4989336;28;20053;-72
2023/08/05 11:12:01;;;;;;;3.80;1.13;;;;;;;22.27;28.81;101190.34;4990787;28;20029;-70
2023/08/05 11:14:27;;;;;;;1.48;0.47;;;;;;;23.42;28.74;101197.16;4986092;28;20073;-69
2023/08/05 11:17:00;;;;;;;2.97;0.50;;;;;;;23.08;27.38;101185.97;4984258;28;21694;-69
2023/08/05 11:19:25;;;;;;;2.25;0.40;;;;;;;23.03;27.55;101182.88;4984279;28;20862;-69
2023/08/05 11:21:51;;;;;;;1.20;0.47;;;;;;;23.50;27.48;101175.13;4989553;28;20022;-71
2023/08/05 11:24:17;;;;;;;1.40;0.30;;;;;;;22.71;27.64;101185.69;4988328;28;20280;-70
2023/08/05 11:26:44;;;;;;;1.63;0.55;;;;;;;22.65;27.96;101188.84;4985559;28;20547;-71